createdAt,value
2019-04-05T00:01:27.590Z,99757.81
2019-04-05T00:03:59.365Z,99754.25
2019-04-05T00:06:31.098Z,99754.25
2019-04-05T00:09:04.603Z,99756.63
2019-04-05T00:11:36.497Z,99759.19
2019-04-05T00:14:08.428Z,99753.59
2019-04-05T00:16:40.236Z,99759.34
2019-04-05T00:19:11.965Z,99758.67
2019-04-05T00:21:43.673Z,99758.67
2019-04-05T00:24:15.439Z,99762.58
2019-04-05T00:26:47.229Z,99762.58
2019-04-05T00:29:18.999Z,99756.63
2019-04-05T00:31:50.781Z,99756.30
2019-04-05T00:34:22.451Z,99757.47
2019-04-05T00:36:54.164Z,99756.77
2019-04-05T00:39:25.966Z,99753.03
2019-04-05T00:41:57.678Z,99748.48
2019-04-05T00:44:29.509Z,99753.36
2019-04-05T00:47:01.292Z,99758.77
2019-04-05T00:49:33.012Z,99757.95
2019-04-05T00:52:05.132Z,99757.09
2019-04-05T00:54:36.907Z,99753.22
2019-04-05T00:57:08.554Z,99753.03
2019-04-05T00:59:40.277Z,99753.70
2019-04-05T01:02:12.058Z,99751.84
2019-04-05T01:04:43.777Z,99760.00
2019-04-05T01:07:15.487Z,99760.00
2019-04-05T01:09:47.162Z,99763.53
2019-04-05T01:12:18.995Z,99763.89
2019-04-05T01:14:50.727Z,99767.23
2019-04-05T01:17:25.021Z,99767.23
2019-04-05T01:19:56.434Z,99762.16
2019-04-05T01:22:28.851Z,99762.16
2019-04-05T01:25:03.641Z,99764.69
2019-04-05T01:27:35.686Z,99766.69
2019-04-05T01:30:08.050Z,99766.53
2019-04-05T01:32:39.823Z,99768.56
2019-04-05T01:35:11.632Z,99771.90
2019-04-05T01:37:43.457Z,99769.72
2019-04-05T01:40:15.082Z,99770.89
2019-04-05T01:42:46.707Z,99770.89
2019-04-05T01:45:18.409Z,99774.92
2019-04-05T01:47:50.085Z,99773.41
2019-04-05T01:50:21.802Z,99778.31
2019-04-05T01:52:53.406Z,99777.16
2019-04-05T01:55:25.121Z,99775.63
2019-04-05T01:57:56.902Z,99775.94
2019-04-05T02:00:28.703Z,99776.30
2019-04-05T02:03:00.386Z,99778.52
2019-04-05T02:05:32.099Z,99772.42
2019-04-05T02:08:03.874Z,99775.77
2019-04-05T02:10:35.781Z,99780.53
2019-04-05T02:13:07.448Z,99782.70
2019-04-05T02:15:39.208Z,99782.70
2019-04-05T02:18:11.145Z,99782.70
2019-04-05T02:20:44.054Z,99786.11
2019-04-05T02:23:15.805Z,99788.48
2019-04-05T02:25:47.527Z,99786.06
2019-04-05T02:28:19.227Z,99788.97
2019-04-05T02:30:51.006Z,99791.36
2019-04-05T02:33:22.690Z,99790.67
2019-04-05T02:35:54.316Z,99791.67
2019-04-05T02:38:25.992Z,99791.16
2019-04-05T02:40:58.836Z,99790.81
2019-04-05T02:43:30.882Z,99792.52
2019-04-05T02:46:02.887Z,99792.14
2019-04-05T02:48:35.482Z,99797.36
2019-04-05T02:51:07.448Z,99795.00
2019-04-05T02:53:39.211Z,99796.98
2019-04-05T02:56:11.142Z,99797.63
2019-04-05T02:58:42.876Z,99805.39
2019-04-05T03:01:14.682Z,99808.04
2019-04-05T03:03:46.429Z,99815.28
2019-04-05T03:06:18.104Z,99808.29
2019-04-05T03:08:49.886Z,99810.95
2019-04-05T03:11:21.496Z,99808.88
2019-04-05T03:13:54.656Z,99805.80
2019-04-05T03:16:40.030Z,99813.83
2019-04-05T03:19:05.814Z,99817.36
2019-04-05T03:21:39.203Z,99818.11
2019-04-05T03:24:13.373Z,99817.72
2019-04-05T03:26:50.548Z,99815.37
2019-04-05T03:29:22.325Z,99812.84
2019-04-05T03:31:54.216Z,99824.30
2019-04-05T03:34:25.992Z,99824.13
2019-04-05T03:36:57.714Z,99825.27
2019-04-05T03:39:29.453Z,99823.91
2019-04-05T03:42:01.180Z,99830.31
2019-04-05T03:44:33.019Z,99828.78
2019-04-05T03:47:04.946Z,99835.36
2019-04-05T03:49:36.679Z,99833.61
2019-04-05T03:52:08.419Z,99838.91
2019-04-05T03:54:40.024Z,99835.98
2019-04-05T03:57:11.778Z,99838.03
2019-04-05T03:59:43.506Z,99835.63
2019-04-05T04:02:15.357Z,99835.98
2019-04-05T04:04:47.100Z,99834.18
2019-04-05T04:07:18.959Z,99836.77
2019-04-05T04:09:50.576Z,99837.99
2019-04-05T04:12:22.271Z,99842.58
2019-04-05T04:14:53.989Z,99842.88
2019-04-05T04:17:25.631Z,99838.23
2019-04-05T04:19:57.516Z,99844.98
2019-04-05T04:22:29.725Z,99852.88
2019-04-05T04:25:01.487Z,99852.77
2019-04-05T04:27:33.280Z,99849.55
2019-04-05T04:30:05.179Z,99852.30
2019-04-05T04:32:36.959Z,99855.98
2019-04-05T04:35:08.686Z,99853.64
2019-04-05T04:37:40.474Z,99855.52
2019-04-05T04:40:12.177Z,99856.45
2019-04-05T04:42:43.960Z,99857.86
2019-04-05T04:45:15.670Z,99857.56
2019-04-05T04:47:47.462Z,99861.90
2019-04-05T04:50:19.447Z,99864.18
2019-04-05T04:52:51.248Z,99867.23
2019-04-05T04:55:22.945Z,99866.04
2019-04-05T04:57:54.753Z,99872.14
2019-04-05T05:00:26.710Z,99869.16
2019-04-05T05:02:58.516Z,99871.14
2019-04-05T05:05:30.555Z,99877.95
2019-04-05T05:08:03.196Z,99873.97
2019-04-05T05:10:35.222Z,99885.84
2019-04-05T05:13:06.842Z,99882.66
2019-04-05T05:15:38.624Z,99878.81
2019-04-05T05:18:10.432Z,99883.34
2019-04-05T05:20:42.779Z,99886.75
2019-04-05T05:23:14.646Z,99885.88
2019-04-05T05:25:47.347Z,99887.88
2019-04-05T05:28:19.126Z,99888.93
2019-04-05T05:30:51.138Z,99897.50
2019-04-05T05:33:22.857Z,99896.41
2019-04-05T05:35:54.553Z,99900.33
2019-04-05T05:38:26.219Z,99900.22
2019-04-05T05:40:57.930Z,99898.75
2019-04-05T05:43:29.611Z,99909.31
2019-04-05T05:46:01.325Z,99902.28
2019-04-05T05:48:33.113Z,99904.33
2019-04-05T05:51:04.835Z,99896.55
2019-04-05T05:53:36.557Z,99906.70
2019-04-05T05:56:08.392Z,99908.29
2019-04-05T05:58:40.100Z,99902.71
2019-04-05T06:01:11.751Z,99898.25
2019-04-05T06:03:43.472Z,99904.52
2019-04-05T06:06:15.353Z,99905.59
2019-04-05T06:08:47.040Z,99905.03
2019-04-05T06:11:18.755Z,99904.17
2019-04-05T06:13:50.548Z,99903.58
2019-04-05T06:16:22.262Z,99910.98
2019-04-05T06:18:53.887Z,99903.17
2019-04-05T06:21:25.609Z,99900.34
2019-04-05T06:23:57.321Z,99904.96
2019-04-05T06:26:29.034Z,99909.58
2019-04-05T06:29:00.759Z,99910.20
2019-04-05T06:31:32.548Z,99916.52
2019-04-05T06:34:04.236Z,99911.35
2019-04-05T06:36:35.852Z,99913.59
2019-04-05T06:39:08.731Z,99918.38
2019-04-05T06:41:40.529Z,99918.61
2019-04-05T06:44:12.260Z,99918.67
2019-04-05T06:46:44.078Z,99925.14
2019-04-05T06:49:15.751Z,99921.77
2019-04-05T06:51:47.472Z,99928.41
2019-04-05T06:54:19.188Z,99934.02
2019-04-05T06:56:50.917Z,99931.00
2019-04-05T06:59:22.589Z,99929.52
2019-04-05T07:01:54.198Z,99934.11
2019-04-05T07:04:25.966Z,99944.34
2019-04-05T07:06:57.742Z,99944.34
2019-04-05T07:09:29.419Z,99944.38
2019-04-05T07:12:01.142Z,99945.25
2019-04-05T07:14:32.942Z,99940.87
2019-04-05T07:17:05.633Z,99936.99
2019-04-05T07:19:38.430Z,99940.39
2019-04-05T07:22:10.192Z,99942.47
2019-04-05T07:24:41.987Z,99939.75
2019-04-05T07:27:13.928Z,99943.19
2019-04-05T07:29:45.731Z,99932.15
2019-04-05T07:32:17.452Z,99943.49
2019-04-05T07:34:49.879Z,99944.84
2019-04-05T07:37:21.858Z,99945.81
2019-04-05T07:39:53.560Z,99941.40
2019-04-05T07:42:25.339Z,99945.13
2019-04-05T07:45:01.646Z,99948.33
2019-04-05T07:47:35.340Z,99954.41
2019-04-05T07:50:07.875Z,99959.99
2019-04-05T07:52:41.448Z,99951.82
2019-04-05T07:55:13.962Z,99958.25
2019-04-05T07:57:45.851Z,99963.02
2019-04-05T08:00:43.302Z,99954.41
2019-04-05T08:03:15.103Z,99961.80
2019-04-05T08:05:46.878Z,99964.92
2019-04-05T08:08:24.905Z,99965.08
2019-04-05T08:10:59.034Z,99973.38
2019-04-05T08:13:31.329Z,99971.11
2019-04-05T08:16:03.329Z,99979.00
2019-04-05T08:18:35.406Z,99975.58
2019-04-05T08:21:07.332Z,99980.64
2019-04-05T08:23:39.471Z,99980.08
2019-04-05T08:26:13.061Z,99982.97
2019-04-05T08:28:48.973Z,99981.08
2019-04-05T08:31:21.171Z,99982.32
2019-04-05T08:33:52.971Z,99982.15
2019-04-05T08:36:24.730Z,99982.88
2019-04-05T08:38:56.489Z,99983.63
2019-04-05T08:41:28.227Z,99986.61
2019-04-05T08:44:00.010Z,99984.63
2019-04-05T08:46:31.728Z,99982.06
2019-04-05T08:49:10.684Z,99980.20
2019-04-05T08:51:37.087Z,99988.22
2019-04-05T08:54:09.008Z,99977.98
2019-04-05T08:56:40.719Z,99982.56
2019-04-05T08:59:12.336Z,99983.21
2019-04-05T09:01:44.173Z,99977.78
2019-04-05T09:04:15.945Z,99973.52
2019-04-05T09:06:47.738Z,99971.49
2019-04-05T09:09:19.440Z,99967.67
2019-04-05T09:11:51.142Z,99967.95
2019-04-05T09:14:22.874Z,99969.00
2019-04-05T09:16:54.642Z,99971.22
2019-04-05T09:19:27.415Z,99967.27
2019-04-05T09:21:59.126Z,99968.02
2019-04-05T09:24:30.852Z,99965.14
2019-04-05T09:27:02.912Z,99968.88
2019-04-05T09:29:34.701Z,99970.88
2019-04-05T09:32:06.413Z,99970.42
2019-04-05T09:34:38.343Z,99974.20
2019-04-05T09:37:10.115Z,99972.92
2019-04-05T09:39:42.033Z,99976.65
2019-04-05T09:42:13.805Z,99970.41
2019-04-05T09:44:45.530Z,99976.82
2019-04-05T09:47:17.243Z,99976.86
2019-04-05T09:49:48.954Z,99987.08
2019-04-05T09:52:20.629Z,99985.45
2019-04-05T09:54:52.342Z,99992.19
2019-04-05T09:57:24.123Z,99978.51
2019-04-05T09:59:55.862Z,99979.78
2019-04-05T10:02:27.592Z,99982.78
2019-04-05T10:04:59.280Z,99980.96
2019-04-05T10:07:30.982Z,99978.09
2019-04-05T10:10:02.692Z,99981.83
2019-04-05T10:12:34.589Z,99985.05
2019-04-05T10:15:06.587Z,99986.43
2019-04-05T10:17:38.378Z,99985.09
2019-04-05T10:20:10.158Z,99985.59
2019-04-05T10:22:42.850Z,99975.25
2019-04-05T10:25:14.635Z,99980.83
2019-04-05T10:27:46.400Z,99974.80
2019-04-05T10:30:18.207Z,99979.33
2019-04-05T10:32:50.100Z,99974.57
2019-04-05T10:35:21.873Z,99974.50
2019-04-05T10:37:53.677Z,99973.61
2019-04-05T10:40:25.514Z,99976.11
2019-04-05T10:42:57.334Z,99967.23
2019-04-05T10:45:29.027Z,99977.20
2019-04-05T10:48:00.818Z,99972.27
2019-04-05T10:50:32.620Z,99963.16
2019-04-05T10:53:04.316Z,99970.34
2019-04-05T10:55:38.967Z,99962.45
2019-04-05T10:58:10.838Z,99975.09
2019-04-05T11:00:42.702Z,99974.08
2019-04-05T11:03:14.478Z,99964.45
2019-04-05T11:05:49.103Z,99964.22
2019-04-05T11:08:19.552Z,99965.13
2019-04-05T11:10:51.153Z,99966.67
2019-04-05T11:13:23.931Z,99968.03
2019-04-05T11:15:55.731Z,99962.09
2019-04-05T11:18:27.419Z,99963.41
2019-04-05T11:20:59.095Z,99966.59
2019-04-05T11:23:30.718Z,99971.11
2019-04-05T11:26:02.440Z,99975.85
2019-04-05T11:28:34.369Z,99967.05
2019-04-05T11:31:06.202Z,99966.03
2019-04-05T11:33:37.977Z,99961.98
2019-04-05T11:36:11.579Z,99960.00
2019-04-05T11:38:43.485Z,99958.84
2019-04-05T11:41:15.192Z,99963.61
2019-04-05T11:43:46.985Z,99967.05
2019-04-05T11:46:18.691Z,99958.72
2019-04-05T11:48:51.364Z,99965.05
2019-04-05T11:51:23.070Z,99972.28
2019-04-05T11:53:54.785Z,99962.69
2019-04-05T11:56:26.491Z,99960.65
2019-04-05T11:58:58.269Z,99962.63
2019-04-05T12:01:38.212Z,99966.46
2019-04-05T12:04:10.589Z,99966.98
2019-04-05T12:06:42.304Z,99962.50
2019-04-05T12:09:14.099Z,99962.48
2019-04-05T12:11:46.515Z,99960.05
2019-04-05T12:14:29.649Z,99963.69
2019-04-05T12:16:52.816Z,99956.11
2019-04-05T12:19:24.611Z,99957.00
2019-04-05T12:21:56.376Z,99947.66
2019-04-05T12:24:28.161Z,99943.99
2019-04-05T12:26:59.936Z,99956.96
2019-04-05T12:29:31.717Z,99959.00
2019-04-05T12:32:03.327Z,99954.19
2019-04-05T12:34:35.136Z,99956.64
2019-04-05T12:37:07.277Z,99952.97
2019-04-05T12:39:39.264Z,99947.37
2019-04-05T12:42:12.148Z,99946.17
2019-04-05T12:44:45.590Z,99944.39
2019-04-05T12:47:17.355Z,99943.28
2019-04-05T12:49:49.076Z,99943.45
2019-04-05T12:52:22.875Z,99941.98
2019-04-05T12:54:54.946Z,99941.33
2019-04-05T12:57:27.878Z,99942.70
2019-04-05T13:00:00.144Z,99938.30
2019-04-05T13:02:33.951Z,99935.44
2019-04-05T13:05:06.444Z,99932.08
2019-04-05T13:07:38.351Z,99930.92
2019-04-05T13:10:10.335Z,99925.09
2019-04-05T13:12:42.230Z,99925.92
2019-04-05T13:15:17.113Z,99923.20
2019-04-05T13:17:47.921Z,99927.56
2019-04-05T13:20:20.149Z,99921.12
2019-04-05T13:22:52.300Z,99926.22
2019-04-05T13:25:24.208Z,99919.34
2019-04-05T13:27:56.142Z,99925.84
2019-04-05T13:30:28.109Z,99926.69
2019-04-05T13:33:01.056Z,99927.02
2019-04-05T13:35:33.645Z,99914.66
2019-04-05T13:38:05.712Z,99912.69
2019-04-05T13:40:38.040Z,99929.28
2019-04-05T13:43:10.109Z,99926.53
2019-04-05T13:45:43.055Z,99922.88
2019-04-05T13:48:15.624Z,99923.53
2019-04-05T13:50:51.348Z,99931.13
2019-04-05T13:53:23.476Z,99931.13
2019-04-05T13:55:55.352Z,99925.86
2019-04-05T13:58:27.226Z,99927.02
2019-04-05T14:00:58.943Z,99928.09
2019-04-05T14:03:30.853Z,99928.32
2019-04-05T14:06:02.724Z,99925.40
2019-04-05T14:08:36.699Z,99924.77
2019-04-05T14:11:08.361Z,99927.05
2019-04-05T14:13:42.956Z,99932.25
2019-04-05T14:16:17.877Z,99928.73
2019-04-05T14:18:50.441Z,99930.55
2019-04-05T14:21:22.536Z,99932.42
2019-04-05T14:23:55.116Z,99925.66
2019-04-05T14:26:27.389Z,99921.62
2019-04-05T14:29:03.490Z,99923.76
2019-04-05T14:31:34.320Z,99918.00
2019-04-05T14:34:06.478Z,99918.08
2019-04-05T14:36:38.495Z,99920.62
2019-04-05T14:39:10.828Z,99928.61
2019-04-05T14:41:42.803Z,99930.59
2019-04-05T14:44:15.155Z,99922.52
2019-04-05T14:46:48.360Z,99924.80
2019-04-05T14:49:20.738Z,99929.41
2019-04-05T14:51:56.340Z,99930.10
2019-04-05T14:54:26.573Z,99927.45
2019-04-05T14:57:02.435Z,99923.47
2019-04-05T14:59:32.962Z,99924.33
2019-04-05T15:02:05.140Z,99926.73
2019-04-05T15:04:37.179Z,99928.44
2019-04-05T15:07:08.956Z,99931.86
2019-04-05T15:09:40.669Z,99925.87
2019-04-05T15:12:12.553Z,99926.55
2019-04-05T15:14:44.153Z,99925.42
2019-04-05T15:17:15.879Z,99929.05
2019-04-05T15:19:47.688Z,99920.46
2019-04-05T15:22:19.683Z,99927.69
2019-04-05T15:24:51.466Z,99924.49
2019-04-05T15:27:23.837Z,99917.56
2019-04-05T15:29:56.282Z,99915.31
2019-04-05T15:32:28.232Z,99918.86
2019-04-05T15:35:00.031Z,99920.16
2019-04-05T15:37:32.616Z,99924.27
2019-04-05T15:40:05.503Z,99924.30
2019-04-05T15:42:37.856Z,99922.41
2019-04-05T15:45:09.834Z,99919.48
2019-04-05T15:47:42.174Z,99927.17
2019-04-05T15:50:14.499Z,99930.36
2019-04-05T15:52:46.870Z,99947.66
2019-04-05T15:55:20.098Z,99955.59
2019-04-05T15:57:52.938Z,99971.58
2019-04-05T16:00:40.725Z,99979.50
2019-04-05T16:03:12.798Z,99981.34
2019-04-05T16:05:44.874Z,99974.41
2019-04-05T16:08:18.163Z,99990.29
2019-04-05T16:10:51.264Z,100014.16
2019-04-05T16:13:24.620Z,100010.76
2019-04-05T16:15:56.580Z,99992.41
2019-04-05T16:18:28.364Z,99990.70
2019-04-05T16:21:00.103Z,99962.05
2019-04-05T16:23:31.929Z,99966.02
2019-04-05T16:26:04.155Z,99961.81
2019-04-05T16:28:36.827Z,99967.28
2019-04-05T16:31:08.910Z,99968.12
2019-04-05T16:33:40.834Z,99971.89
2019-04-05T16:36:12.767Z,99979.70
2019-04-05T16:38:44.456Z,99980.86
2019-04-05T16:41:16.246Z,99980.34
2019-04-05T16:43:47.916Z,99985.39
2019-04-05T16:46:19.706Z,99989.98
2019-04-05T16:48:52.152Z,99985.78
2019-04-05T16:51:25.260Z,99995.30
2019-04-05T16:54:00.639Z,100002.29
2019-04-05T16:56:33.374Z,99990.56
2019-04-05T16:59:05.144Z,99994.27
2019-04-05T17:01:36.949Z,99993.12
2019-04-05T17:04:09.456Z,99994.59
2019-04-05T17:06:41.965Z,99993.50
2019-04-05T17:09:13.659Z,99994.27
2019-04-05T17:11:45.960Z,99995.80
2019-04-05T17:14:17.762Z,100000.09
2019-04-05T17:16:50.627Z,100000.03
2019-04-05T17:19:23.416Z,99997.62
2019-04-05T17:21:56.033Z,99995.51
2019-04-05T17:24:28.419Z,99999.25
2019-04-05T17:27:00.372Z,99995.61
2019-04-05T17:29:32.352Z,100000.13
2019-04-05T17:32:04.063Z,100008.86
2019-04-05T17:34:35.892Z,100006.20
2019-04-05T17:37:08.121Z,100022.80
2019-04-05T17:39:40.232Z,100022.53
2019-04-05T17:42:12.021Z,100019.93
2019-04-05T17:44:43.794Z,100025.95
2019-04-05T17:47:15.540Z,100028.88
2019-04-05T17:49:47.340Z,100030.34
2019-04-05T17:52:19.117Z,100036.92
2019-04-05T17:54:51.827Z,100034.80
2019-04-05T17:57:23.614Z,100045.36
2019-04-05T17:59:55.429Z,100042.34
2019-04-05T18:02:28.480Z,100049.72
2019-04-05T18:05:00.294Z,100049.58
2019-04-05T18:07:32.099Z,100048.58
2019-04-05T18:10:03.904Z,100051.33
2019-04-05T18:12:36.105Z,100057.78
2019-04-05T18:15:08.309Z,100058.03
2019-04-05T18:17:40.262Z,100058.23
2019-04-05T18:20:12.053Z,100066.31
2019-04-05T18:22:45.308Z,100068.70
2019-04-05T18:25:20.143Z,100066.48
2019-04-05T18:27:54.575Z,100071.92
2019-04-05T18:30:26.917Z,100072.44
2019-04-05T18:32:58.747Z,100073.97
2019-04-05T18:35:33.478Z,100073.80
2019-04-05T18:38:05.462Z,100077.02
2019-04-05T18:40:40.333Z,100075.88
2019-04-05T18:43:11.632Z,100078.81
2019-04-05T18:45:43.356Z,100076.14
2019-04-05T18:48:15.139Z,100078.33
2019-04-05T18:50:48.553Z,100082.08
2019-04-05T18:53:20.566Z,100075.61
2019-04-05T18:55:52.985Z,100078.52
2019-04-05T18:58:24.973Z,100082.27
2019-04-05T19:00:58.429Z,100081.27
2019-04-05T19:03:32.677Z,100081.30
2019-04-05T19:06:04.934Z,100088.79
2019-04-05T19:08:39.890Z,100088.97
2019-04-05T19:11:10.591Z,100087.09
2019-04-05T19:13:42.413Z,100089.86
2019-04-05T19:16:14.205Z,100087.81
2019-04-05T19:18:46.017Z,100091.59
2019-04-05T19:21:17.817Z,100094.13
2019-04-05T19:23:51.134Z,100088.53
2019-04-05T19:26:23.179Z,100094.47
2019-04-05T19:28:55.034Z,100092.96
2019-04-05T19:49:23.534Z,100093.50
2019-04-05T19:51:55.218Z,100090.80
2019-04-05T19:54:27.022Z,100103.05
2019-04-05T19:56:58.738Z,100104.22
2019-04-05T19:59:30.521Z,100096.06
2019-04-05T20:02:02.322Z,100103.24
2019-04-05T20:04:34.120Z,100103.06
2019-04-05T20:07:06.018Z,100104.63
2019-04-05T20:09:37.808Z,100103.62
2019-04-05T20:12:09.572Z,100105.16
2019-04-05T20:14:42.284Z,100106.86
2019-04-05T20:17:13.893Z,100108.37
2019-04-05T20:19:45.779Z,100106.00
2019-04-05T20:22:17.487Z,100110.26
2019-04-05T20:24:49.198Z,100112.98
2019-04-05T20:27:20.902Z,100103.62
2019-04-05T20:29:52.640Z,100111.78
2019-04-05T20:32:24.367Z,100114.87
2019-04-05T20:34:56.041Z,100114.51
2019-04-05T20:37:27.839Z,100115.86
2019-04-05T20:39:59.622Z,100115.53
2019-04-05T20:42:32.506Z,100112.97
2019-04-05T20:45:04.270Z,100115.53
2019-04-05T20:47:36.052Z,100112.48
2019-04-05T20:50:08.312Z,100118.44
2019-04-05T20:52:40.318Z,100116.40
2019-04-05T20:55:12.005Z,100114.02
2019-04-05T20:57:43.774Z,100115.72
2019-04-05T21:00:17.552Z,100109.76
2019-04-05T21:02:49.325Z,100118.25
2019-04-05T21:05:25.591Z,100114.36
2019-04-05T21:07:54.496Z,100114.35
2019-04-05T21:10:26.291Z,100115.21
2019-04-05T21:12:58.114Z,100120.46
2019-04-05T21:15:29.806Z,100122.00
2019-04-05T21:18:01.526Z,100126.08
2019-04-05T21:20:33.302Z,100132.53
2019-04-05T21:23:04.917Z,100124.05
2019-04-05T21:25:37.317Z,100132.67
2019-04-05T21:28:09.047Z,100131.48
2019-04-05T21:30:40.825Z,100137.77
2019-04-05T21:33:12.659Z,100140.13
2019-04-05T21:35:46.016Z,100135.02
2019-04-05T21:38:17.988Z,100138.24
2019-04-05T21:40:49.710Z,100139.91
2019-04-05T21:43:21.442Z,100140.18
2019-04-05T21:45:53.161Z,100143.56
2019-04-05T21:48:24.998Z,100148.98
2019-04-05T21:50:56.780Z,100145.38
2019-04-05T21:53:28.572Z,100146.88
2019-04-05T21:56:00.366Z,100146.85
2019-04-05T21:58:31.980Z,100154.27
2019-04-05T22:01:05.838Z,100152.91
2019-04-05T22:03:38.464Z,100154.03
2019-04-05T22:06:10.399Z,100150.45
2019-04-05T22:08:42.190Z,100149.08
2019-04-05T22:11:13.896Z,100155.13
2019-04-05T22:13:45.825Z,100152.10
2019-04-05T22:16:17.609Z,100146.16
2019-04-05T22:18:49.303Z,100157.46
2019-04-05T22:21:21.089Z,100146.22
2019-04-05T22:23:52.885Z,100146.22
2019-04-05T22:26:24.503Z,100147.92
2019-04-05T22:28:56.291Z,100151.43
2019-04-05T22:31:28.090Z,100158.90
2019-04-05T22:33:59.917Z,100156.13
2019-04-05T22:36:31.839Z,100156.13
2019-04-05T22:39:03.714Z,100158.83
2019-04-05T22:41:37.299Z,100153.13
2019-04-05T22:44:09.085Z,100153.27
2019-04-05T22:46:40.870Z,100153.27
2019-04-05T22:49:12.594Z,100157.50
2019-04-05T22:51:44.420Z,100154.72
2019-04-05T22:54:16.229Z,100152.25
2019-04-05T22:56:48.025Z,100156.17
2019-04-05T22:59:19.759Z,100160.67
2019-04-05T23:01:51.555Z,100156.56
2019-04-05T23:04:23.326Z,100156.65
2019-04-05T23:06:55.128Z,100159.53
2019-04-05T23:09:27.027Z,100155.64
2019-04-05T23:11:58.917Z,100159.09
2019-04-05T23:14:30.725Z,100153.92
2019-04-05T23:17:02.458Z,100153.92
2019-04-05T23:19:35.164Z,100157.33
2019-04-05T23:22:07.366Z,100155.58
2019-04-05T23:24:39.294Z,100158.34
2019-04-05T23:27:11.017Z,100157.94
2019-04-05T23:29:42.844Z,100162.90
2019-04-05T23:32:15.664Z,100160.20
2019-04-05T23:34:47.502Z,100166.51
2019-04-05T23:37:19.221Z,100165.78
2019-04-05T23:39:50.940Z,100165.78
2019-04-05T23:42:22.728Z,100166.87
2019-04-05T23:44:54.523Z,100161.63
2019-04-05T23:47:26.252Z,100163.57
2019-04-05T23:49:57.972Z,100157.70
2019-04-05T23:52:30.090Z,100159.41
2019-04-05T23:55:02.886Z,100158.70
2019-04-05T23:57:34.683Z,100160.62
